sensor_id;sensor_type;location;lat;lon;timestamp;P1;durP1;ratioP1;P2;durP2;ratioP2
8626;SDS011;4351;51.422;6.794;2023-07-02T00:00:11;7.13;;;3.73;;
8626;SDS011;4351;51.422;6.794;2023-07-02T00:02:39;7.50;;;4.20;;
8626;SDS011;4351;51.422;6.794;2023-07-02T00:05:07;6.70;;;4.00;;
8626;SDS011;4351;51.422;6.794;2023-07-02T00:07:35;5.70;;;3.53;;
8626;SDS011;4351;51.422;6.794;2023-07-02T00:10:04;10.07;;;4.50;;
8626;SDS011;4351;51.422;6.794;2023-07-02T00:12:32;7.90;;;4.07;;
8626;SDS011;4351;51.422;6.794;2023-07-02T00:15:02;8.10;;;4.20;;
8626;SDS011;4351;51.422;6.794;2023-07-02T00:17:31;7.20;;;4.00;;
8626;SDS011;4351;51.422;6.794;2023-07-02T00:19:59;7.07;;;4.23;;
8626;SDS011;4351;51.422;6.794;2023-07-02T00:22:29;6.77;;;4.00;;
8626;SDS011;4351;51.422;6.794;2023-07-02T00:24:57;8.60;;;4.43;;
8626;SDS011;4351;51.422;6.794;2023-07-02T00:27:25;8.80;;;4.67;;
8626;SDS011;4351;51.422;6.794;2023-07-02T00:29:53;9.03;;;4.50;;
8626;SDS011;4351;51.422;6.794;2023-07-02T00:32:23;7.33;;;4.30;;
8626;SDS011;4351;51.422;6.794;2023-07-02T00:34:51;8.27;;;4.20;;
8626;SDS011;4351;51.422;6.794;2023-07-02T00:37:19;11.53;;;4.50;;
8626;SDS011;4351;51.422;6.794;2023-07-02T00:39:47;11.40;;;4.67;;
8626;SDS011;4351;51.422;6.794;2023-07-02T00:42:15;14.43;;;4.50;;
8626;SDS011;4351;51.422;6.794;2023-07-02T00:44:43;6.57;;;4.03;;
8626;SDS011;4351;51.422;6.794;2023-07-02T00:47:12;8.90;;;4.30;;
8626;SDS011;4351;51.422;6.794;2023-07-02T00:49:43;8.10;;;4.20;;
8626;SDS011;4351;51.422;6.794;2023-07-02T00:52:11;6.70;;;4.13;;
8626;SDS011;4351;51.422;6.794;2023-07-02T00:54:39;10.43;;;3.90;;
8626;SDS011;4351;51.422;6.794;2023-07-02T00:57:07;7.27;;;4.00;;
8626;SDS011;4351;51.422;6.794;2023-07-02T00:59:35;9.47;;;4.50;;
8626;SDS011;4351;51.422;6.794;2023-07-02T01:02:04;10.20;;;4.13;;
8626;SDS011;4351;51.422;6.794;2023-07-02T01:04:33;10.07;;;4.77;;
8626;SDS011;4351;51.422;6.794;2023-07-02T01:07:02;8.23;;;5.13;;
8626;SDS011;4351;51.422;6.794;2023-07-02T01:09:35;9.43;;;4.93;;
8626;SDS011;4351;51.422;6.794;2023-07-02T01:12:03;9.03;;;5.60;;
8626;SDS011;4351;51.422;6.794;2023-07-02T01:14:36;9.00;;;5.07;;
8626;SDS011;4351;51.422;6.794;2023-07-02T01:17:06;11.13;;;5.13;;
8626;SDS011;4351;51.422;6.794;2023-07-02T01:19:41;9.13;;;5.37;;
8626;SDS011;4351;51.422;6.794;2023-07-02T01:22:11;12.53;;;5.57;;
8626;SDS011;4351;51.422;6.794;2023-07-02T01:24:40;11.43;;;5.60;;
8626;SDS011;4351;51.422;6.794;2023-07-02T01:27:10;15.83;;;6.17;;
8626;SDS011;4351;51.422;6.794;2023-07-02T01:29:38;12.23;;;6.23;;
8626;SDS011;4351;51.422;6.794;2023-07-02T01:32:06;13.17;;;5.73;;
8626;SDS011;4351;51.422;6.794;2023-07-02T01:34:34;12.30;;;5.80;;
8626;SDS011;4351;51.422;6.794;2023-07-02T01:37:04;10.87;;;5.83;;
8626;SDS011;4351;51.422;6.794;2023-07-02T01:39:34;12.40;;;5.87;;
8626;SDS011;4351;51.422;6.794;2023-07-02T01:42:09;14.00;;;6.83;;
8626;SDS011;4351;51.422;6.794;2023-07-02T01:44:38;12.13;;;6.13;;
8626;SDS011;4351;51.422;6.794;2023-07-02T01:47:06;13.57;;;6.57;;
8626;SDS011;4351;51.422;6.794;2023-07-02T01:49:34;14.33;;;6.73;;
8626;SDS011;4351;51.422;6.794;2023-07-02T01:52:05;12.77;;;6.03;;
8626;SDS011;4351;51.422;6.794;2023-07-02T01:54:34;11.97;;;5.90;;
8626;SDS011;4351;51.422;6.794;2023-07-02T01:57:03;9.93;;;5.80;;
8626;SDS011;4351;51.422;6.794;2023-07-02T01:59:31;10.63;;;5.70;;
8626;SDS011;4351;51.422;6.794;2023-07-02T02:01:59;12.50;;;6.43;;
8626;SDS011;4351;51.422;6.794;2023-07-02T02:04:28;12.70;;;6.30;;
8626;SDS011;4351;51.422;6.794;2023-07-02T02:06:56;12.17;;;5.57;;
8626;SDS011;4351;51.422;6.794;2023-07-02T02:09:25;15.00;;;6.30;;
8626;SDS011;4351;51.422;6.794;2023-07-02T02:11:54;13.37;;;6.40;;
8626;SDS011;4351;51.422;6.794;2023-07-02T02:14:22;9.80;;;5.73;;
8626;SDS011;4351;51.422;6.794;2023-07-02T02:16:50;13.73;;;5.80;;
8626;SDS011;4351;51.422;6.794;2023-07-02T02:19:19;12.57;;;6.70;;
8626;SDS011;4351;51.422;6.794;2023-07-02T02:21:46;11.37;;;6.00;;
8626;SDS011;4351;51.422;6.794;2023-07-02T02:24:14;11.77;;;6.20;;
8626;SDS011;4351;51.422;6.794;2023-07-02T02:26:43;13.23;;;7.20;;
8626;SDS011;4351;51.422;6.794;2023-07-02T02:29:11;12.50;;;6.70;;
8626;SDS011;4351;51.422;6.794;2023-07-02T02:31:39;16.10;;;7.13;;
8626;SDS011;4351;51.422;6.794;2023-07-02T02:34:07;16.60;;;7.40;;
8626;SDS011;4351;51.422;6.794;2023-07-02T02:36:35;13.97;;;7.70;;
8626;SDS011;4351;51.422;6.794;2023-07-02T02:39:03;19.20;;;7.53;;
8626;SDS011;4351;51.422;6.794;2023-07-02T02:41:32;16.37;;;8.30;;
8626;SDS011;4351;51.422;6.794;2023-07-02T02:44:02;15.90;;;7.67;;
8626;SDS011;4351;51.422;6.794;2023-07-02T02:46:30;21.83;;;8.80;;
8626;SDS011;4351;51.422;6.794;2023-07-02T02:48:58;19.30;;;8.93;;
8626;SDS011;4351;51.422;6.794;2023-07-02T02:51:26;18.13;;;8.73;;
8626;SDS011;4351;51.422;6.794;2023-07-02T02:53:54;17.67;;;8.80;;
8626;SDS011;4351;51.422;6.794;2023-07-02T02:56:22;16.87;;;8.73;;
8626;SDS011;4351;51.422;6.794;2023-07-02T02:58:50;17.10;;;9.53;;
8626;SDS011;4351;51.422;6.794;2023-07-02T03:01:20;17.67;;;9.50;;
8626;SDS011;4351;51.422;6.794;2023-07-02T03:03:48;18.23;;;9.17;;
8626;SDS011;4351;51.422;6.794;2023-07-02T03:06:16;19.43;;;9.77;;
8626;SDS011;4351;51.422;6.794;2023-07-02T03:08:44;15.93;;;8.80;;
8626;SDS011;4351;51.422;6.794;2023-07-02T03:11:12;18.20;;;9.37;;
8626;SDS011;4351;51.422;6.794;2023-07-02T03:13:39;19.80;;;9.90;;
8626;SDS011;4351;51.422;6.794;2023-07-02T03:16:07;20.67;;;9.67;;
8626;SDS011;4351;51.422;6.794;2023-07-02T03:18:37;20.00;;;9.83;;
8626;SDS011;4351;51.422;6.794;2023-07-02T03:21:05;17.87;;;9.97;;
8626;SDS011;4351;51.422;6.794;2023-07-02T03:23:33;21.03;;;9.47;;
8626;SDS011;4351;51.422;6.794;2023-07-02T03:26:01;19.83;;;9.90;;
8626;SDS011;4351;51.422;6.794;2023-07-02T03:28:29;23.47;;;9.90;;
8626;SDS011;4351;51.422;6.794;2023-07-02T03:30:57;19.63;;;10.63;;
8626;SDS011;4351;51.422;6.794;2023-07-02T03:33:25;21.20;;;10.57;;
8626;SDS011;4351;51.422;6.794;2023-07-02T03:35:55;23.43;;;10.50;;
8626;SDS011;4351;51.422;6.794;2023-07-02T03:38:22;23.53;;;11.67;;
8626;SDS011;4351;51.422;6.794;2023-07-02T03:40:50;20.40;;;10.27;;
8626;SDS011;4351;51.422;6.794;2023-07-02T03:43:18;20.07;;;11.13;;
8626;SDS011;4351;51.422;6.794;2023-07-02T03:45:46;20.50;;;11.27;;
8626;SDS011;4351;51.422;6.794;2023-07-02T03:48:14;25.73;;;11.63;;
8626;SDS011;4351;51.422;6.794;2023-07-02T03:50:42;25.17;;;12.13;;
8626;SDS011;4351;51.422;6.794;2023-07-02T03:53:11;23.07;;;10.60;;
8626;SDS011;4351;51.422;6.794;2023-07-02T03:55:39;26.93;;;10.80;;
8626;SDS011;4351;51.422;6.794;2023-07-02T03:58:07;20.33;;;11.07;;
8626;SDS011;4351;51.422;6.794;2023-07-02T04:00:35;25.83;;;11.67;;
8626;SDS011;4351;51.422;6.794;2023-07-02T04:03:03;25.13;;;12.27;;
8626;SDS011;4351;51.422;6.794;2023-07-02T04:05:31;23.60;;;12.30;;
8626;SDS011;4351;51.422;6.794;2023-07-02T04:07:59;22.30;;;11.83;;
8626;SDS011;4351;51.422;6.794;2023-07-02T04:10:28;23.00;;;12.37;;
8626;SDS011;4351;51.422;6.794;2023-07-02T04:12:56;23.47;;;11.73;;
8626;SDS011;4351;51.422;6.794;2023-07-02T04:15:24;20.33;;;12.03;;
8626;SDS011;4351;51.422;6.794;2023-07-02T04:17:52;22.80;;;12.23;;
8626;SDS011;4351;51.422;6.794;2023-07-02T04:20:21;27.03;;;13.40;;
8626;SDS011;4351;51.422;6.794;2023-07-02T04:22:48;26.10;;;13.53;;
8626;SDS011;4351;51.422;6.794;2023-07-02T04:25:16;25.30;;;13.37;;
8626;SDS011;4351;51.422;6.794;2023-07-02T04:28:06;22.57;;;12.57;;
8626;SDS011;4351;51.422;6.794;2023-07-02T04:30:34;29.40;;;13.43;;
8626;SDS011;4351;51.422;6.794;2023-07-02T04:33:02;25.40;;;13.37;;
8626;SDS011;4351;51.422;6.794;2023-07-02T04:35:31;20.33;;;11.90;;
8626;SDS011;4351;51.422;6.794;2023-07-02T04:38:00;25.63;;;13.10;;
8626;SDS011;4351;51.422;6.794;2023-07-02T04:40:28;29.63;;;13.30;;
8626;SDS011;4351;51.422;6.794;2023-07-02T04:42:56;22.97;;;12.40;;
8626;SDS011;4351;51.422;6.794;2023-07-02T04:45:26;24.67;;;13.40;;
8626;SDS011;4351;51.422;6.794;2023-07-02T04:47:58;28.13;;;13.87;;
8626;SDS011;4351;51.422;6.794;2023-07-02T04:50:27;29.70;;;14.10;;
8626;SDS011;4351;51.422;6.794;2023-07-02T04:52:55;28.73;;;14.03;;
8626;SDS011;4351;51.422;6.794;2023-07-02T04:55:23;25.60;;;14.27;;
8626;SDS011;4351;51.422;6.794;2023-07-02T04:57:51;26.87;;;14.50;;
8626;SDS011;4351;51.422;6.794;2023-07-02T05:00:19;30.80;;;14.37;;
8626;SDS011;4351;51.422;6.794;2023-07-02T05:02:50;28.87;;;14.40;;
8626;SDS011;4351;51.422;6.794;2023-07-02T05:05:18;26.90;;;13.70;;
8626;SDS011;4351;51.422;6.794;2023-07-02T05:07:46;26.50;;;14.60;;
8626;SDS011;4351;51.422;6.794;2023-07-02T05:10:14;30.03;;;14.67;;
8626;SDS011;4351;51.422;6.794;2023-07-02T05:12:41;26.57;;;14.10;;
8626;SDS011;4351;51.422;6.794;2023-07-02T05:15:09;29.23;;;15.20;;
8626;SDS011;4351;51.422;6.794;2023-07-02T05:17:38;26.77;;;14.07;;
8626;SDS011;4351;51.422;6.794;2023-07-02T05:20:10;26.90;;;13.93;;
8626;SDS011;4351;51.422;6.794;2023-07-02T05:22:39;28.13;;;14.77;;
8626;SDS011;4351;51.422;6.794;2023-07-02T05:25:07;31.63;;;15.00;;
8626;SDS011;4351;51.422;6.794;2023-07-02T05:27:35;27.97;;;14.87;;
8626;SDS011;4351;51.422;6.794;2023-07-02T05:30:04;22.60;;;13.57;;
8626;SDS011;4351;51.422;6.794;2023-07-02T05:32:36;27.97;;;15.30;;
8626;SDS011;4351;51.422;6.794;2023-07-02T05:35:06;29.73;;;14.97;;
8626;SDS011;4351;51.422;6.794;2023-07-02T05:37:35;30.97;;;15.17;;
8626;SDS011;4351;51.422;6.794;2023-07-02T05:40:04;32.63;;;15.90;;
8626;SDS011;4351;51.422;6.794;2023-07-02T05:42:33;29.90;;;14.73;;
8626;SDS011;4351;51.422;6.794;2023-07-02T05:45:00;28.93;;;14.93;;
8626;SDS011;4351;51.422;6.794;2023-07-02T05:47:28;28.50;;;14.80;;
8626;SDS011;4351;51.422;6.794;2023-07-02T05:49:56;28.70;;;15.70;;
8626;SDS011;4351;51.422;6.794;2023-07-02T05:52:24;32.73;;;15.27;;
8626;SDS011;4351;51.422;6.794;2023-07-02T05:54:54;34.33;;;15.13;;
8626;SDS011;4351;51.422;6.794;2023-07-02T05:57:22;33.20;;;16.00;;
8626;SDS011;4351;51.422;6.794;2023-07-02T05:59:50;29.70;;;14.87;;
8626;SDS011;4351;51.422;6.794;2023-07-02T06:02:18;33.03;;;14.87;;
8626;SDS011;4351;51.422;6.794;2023-07-02T06:04:46;25.90;;;14.10;;
8626;SDS011;4351;51.422;6.794;2023-07-02T06:07:14;29.90;;;13.93;;
8626;SDS011;4351;51.422;6.794;2023-07-02T06:09:42;28.93;;;13.90;;
8626;SDS011;4351;51.422;6.794;2023-07-02T06:12:11;23.67;;;12.67;;
8626;SDS011;4351;51.422;6.794;2023-07-02T06:14:39;28.60;;;13.90;;
8626;SDS011;4351;51.422;6.794;2023-07-02T06:17:07;28.33;;;13.67;;
8626;SDS011;4351;51.422;6.794;2023-07-02T06:19:36;26.13;;;13.43;;
8626;SDS011;4351;51.422;6.794;2023-07-02T06:22:04;28.67;;;13.20;;
8626;SDS011;4351;51.422;6.794;2023-07-02T06:24:32;27.87;;;13.53;;
8626;SDS011;4351;51.422;6.794;2023-07-02T06:27:00;23.47;;;11.73;;
8626;SDS011;4351;51.422;6.794;2023-07-02T06:29:30;28.57;;;12.00;;
8626;SDS011;4351;51.422;6.794;2023-07-02T06:31:59;24.03;;;11.93;;
8626;SDS011;4351;51.422;6.794;2023-07-02T06:34:27;24.77;;;11.90;;
8626;SDS011;4351;51.422;6.794;2023-07-02T06:36:55;28.67;;;12.60;;
8626;SDS011;4351;51.422;6.794;2023-07-02T06:39:23;24.30;;;12.10;;
8626;SDS011;4351;51.422;6.794;2023-07-02T06:41:51;28.67;;;11.90;;
8626;SDS011;4351;51.422;6.794;2023-07-02T06:44:27;26.27;;;11.83;;
8626;SDS011;4351;51.422;6.794;2023-07-02T06:46:56;26.73;;;11.17;;
8626;SDS011;4351;51.422;6.794;2023-07-02T06:49:24;25.63;;;11.73;;
8626;SDS011;4351;51.422;6.794;2023-07-02T06:51:52;26.90;;;11.67;;
8626;SDS011;4351;51.422;6.794;2023-07-02T06:54:20;22.50;;;11.40;;
8626;SDS011;4351;51.422;6.794;2023-07-02T06:56:48;23.57;;;11.97;;
8626;SDS011;4351;51.422;6.794;2023-07-02T06:59:18;22.83;;;12.27;;
8626;SDS011;4351;51.422;6.794;2023-07-02T07:01:47;27.13;;;12.30;;
8626;SDS011;4351;51.422;6.794;2023-07-02T07:04:16;26.87;;;12.33;;
8626;SDS011;4351;51.422;6.794;2023-07-02T07:06:45;24.73;;;12.57;;
8626;SDS011;4351;51.422;6.794;2023-07-02T07:09:13;23.53;;;12.87;;
8626;SDS011;4351;51.422;6.794;2023-07-02T07:11:41;28.50;;;12.87;;
8626;SDS011;4351;51.422;6.794;2023-07-02T07:14:09;29.27;;;13.60;;
8626;SDS011;4351;51.422;6.794;2023-07-02T07:16:37;26.50;;;13.67;;
8626;SDS011;4351;51.422;6.794;2023-07-02T07:19:05;23.00;;;12.43;;
8626;SDS011;4351;51.422;6.794;2023-07-02T07:21:35;24.40;;;12.80;;
8626;SDS011;4351;51.422;6.794;2023-07-02T07:24:03;28.83;;;12.90;;
8626;SDS011;4351;51.422;6.794;2023-07-02T07:26:32;30.23;;;13.67;;
8626;SDS011;4351;51.422;6.794;2023-07-02T07:29:00;23.73;;;12.43;;
8626;SDS011;4351;51.422;6.794;2023-07-02T07:31:28;24.77;;;11.80;;
8626;SDS011;4351;51.422;6.794;2023-07-02T07:33:56;24.10;;;11.23;;
8626;SDS011;4351;51.422;6.794;2023-07-02T07:36:24;23.37;;;10.00;;
8626;SDS011;4351;51.422;6.794;2023-07-02T07:38:54;21.93;;;9.53;;
8626;SDS011;4351;51.422;6.794;2023-07-02T07:41:25;18.47;;;9.27;;
8626;SDS011;4351;51.422;6.794;2023-07-02T07:43:53;21.80;;;9.57;;
8626;SDS011;4351;51.422;6.794;2023-07-02T07:46:21;19.63;;;9.90;;
8626;SDS011;4351;51.422;6.794;2023-07-02T07:48:50;17.00;;;9.40;;
8626;SDS011;4351;51.422;6.794;2023-07-02T07:51:18;18.40;;;9.50;;
8626;SDS011;4351;51.422;6.794;2023-07-02T07:53:46;23.07;;;9.63;;
8626;SDS011;4351;51.422;6.794;2023-07-02T07:56:15;20.77;;;9.13;;
8626;SDS011;4351;51.422;6.794;2023-07-02T07:58:43;21.87;;;9.80;;
8626;SDS011;4351;51.422;6.794;2023-07-02T08:01:11;17.63;;;9.50;;
8626;SDS011;4351;51.422;6.794;2023-07-02T08:03:39;19.43;;;9.60;;
8626;SDS011;4351;51.422;6.794;2023-07-02T08:06:07;19.77;;;9.33;;
8626;SDS011;4351;51.422;6.794;2023-07-02T08:08:35;16.53;;;8.80;;
8626;SDS011;4351;51.422;6.794;2023-07-02T08:11:03;18.80;;;8.77;;
8626;SDS011;4351;51.422;6.794;2023-07-02T08:13:32;15.10;;;8.43;;
8626;SDS011;4351;51.422;6.794;2023-07-02T08:16:00;21.17;;;9.03;;
8626;SDS011;4351;51.422;6.794;2023-07-02T08:18:28;18.27;;;8.50;;
8626;SDS011;4351;51.422;6.794;2023-07-02T08:20:56;15.57;;;7.87;;
8626;SDS011;4351;51.422;6.794;2023-07-02T08:23:24;18.20;;;8.20;;
8626;SDS011;4351;51.422;6.794;2023-07-02T08:25:52;19.90;;;7.73;;
8626;SDS011;4351;51.422;6.794;2023-07-02T08:28:20;16.50;;;7.90;;
8626;SDS011;4351;51.422;6.794;2023-07-02T08:30:49;18.70;;;8.23;;
8626;SDS011;4351;51.422;6.794;2023-07-02T08:33:17;13.60;;;6.93;;
8626;SDS011;4351;51.422;6.794;2023-07-02T08:35:48;17.53;;;7.30;;
8626;SDS011;4351;51.422;6.794;2023-07-02T08:38:16;16.70;;;7.83;;
8626;SDS011;4351;51.422;6.794;2023-07-02T08:40:44;14.00;;;7.13;;
8626;SDS011;4351;51.422;6.794;2023-07-02T08:43:12;16.80;;;7.13;;
8626;SDS011;4351;51.422;6.794;2023-07-02T08:45:41;14.77;;;6.83;;
8626;SDS011;4351;51.422;6.794;2023-07-02T08:48:12;14.73;;;6.73;;
8626;SDS011;4351;51.422;6.794;2023-07-02T08:50:40;13.27;;;7.00;;
8626;SDS011;4351;51.422;6.794;2023-07-02T08:53:10;13.30;;;6.70;;
8626;SDS011;4351;51.422;6.794;2023-07-02T08:55:38;13.10;;;6.67;;
8626;SDS011;4351;51.422;6.794;2023-07-02T08:58:06;17.40;;;6.63;;
8626;SDS011;4351;51.422;6.794;2023-07-02T09:00:37;17.93;;;7.33;;
8626;SDS011;4351;51.422;6.794;2023-07-02T09:03:13;12.77;;;7.13;;
8626;SDS011;4351;51.422;6.794;2023-07-02T09:05:49;18.57;;;7.23;;
8626;SDS011;4351;51.422;6.794;2023-07-02T09:08:25;13.50;;;6.83;;
8626;SDS011;4351;51.422;6.794;2023-07-02T09:10:54;16.50;;;7.20;;
8626;SDS011;4351;51.422;6.794;2023-07-02T09:13:21;14.80;;;7.20;;
8626;SDS011;4351;51.422;6.794;2023-07-02T09:15:49;17.53;;;7.53;;
8626;SDS011;4351;51.422;6.794;2023-07-02T09:18:19;18.73;;;7.73;;
8626;SDS011;4351;51.422;6.794;2023-07-02T09:20:50;16.43;;;7.53;;
8626;SDS011;4351;51.422;6.794;2023-07-02T09:23:18;19.23;;;7.73;;
8626;SDS011;4351;51.422;6.794;2023-07-02T09:25:46;14.93;;;7.67;;
8626;SDS011;4351;51.422;6.794;2023-07-02T09:28:14;17.03;;;7.77;;
8626;SDS011;4351;51.422;6.794;2023-07-02T09:30:50;19.90;;;8.67;;
8626;SDS011;4351;51.422;6.794;2023-07-02T09:33:20;17.00;;;8.00;;
8626;SDS011;4351;51.422;6.794;2023-07-02T09:35:51;16.63;;;8.13;;
8626;SDS011;4351;51.422;6.794;2023-07-02T09:38:20;14.70;;;7.53;;
8626;SDS011;4351;51.422;6.794;2023-07-02T09:40:49;17.47;;;8.60;;
8626;SDS011;4351;51.422;6.794;2023-07-02T09:43:19;16.10;;;8.60;;
8626;SDS011;4351;51.422;6.794;2023-07-02T09:45:48;16.77;;;8.27;;
8626;SDS011;4351;51.422;6.794;2023-07-02T09:48:18;17.63;;;8.70;;
8626;SDS011;4351;51.422;6.794;2023-07-02T09:50:51;21.37;;;8.50;;
8626;SDS011;4351;51.422;6.794;2023-07-02T09:53:22;17.80;;;8.47;;
8626;SDS011;4351;51.422;6.794;2023-07-02T09:55:50;21.47;;;8.20;;
8626;SDS011;4351;51.422;6.794;2023-07-02T09:58:18;18.83;;;7.80;;
8626;SDS011;4351;51.422;6.794;2023-07-02T10:00:46;17.17;;;7.83;;
8626;SDS011;4351;51.422;6.794;2023-07-02T10:03:14;17.77;;;8.17;;
8626;SDS011;4351;51.422;6.794;2023-07-02T10:05:44;15.87;;;7.77;;
8626;SDS011;4351;51.422;6.794;2023-07-02T10:08:12;18.53;;;7.47;;
8626;SDS011;4351;51.422;6.794;2023-07-02T10:10:43;13.77;;;7.47;;
8626;SDS011;4351;51.422;6.794;2023-07-02T10:13:11;13.93;;;7.40;;
8626;SDS011;4351;51.422;6.794;2023-07-02T10:15:39;20.13;;;6.97;;
8626;SDS011;4351;51.422;6.794;2023-07-02T10:18:08;16.50;;;7.47;;
8626;SDS011;4351;51.422;6.794;2023-07-02T10:20:37;14.30;;;6.67;;
8626;SDS011;4351;51.422;6.794;2023-07-02T10:23:08;12.90;;;6.87;;
8626;SDS011;4351;51.422;6.794;2023-07-02T10:25:37;20.30;;;8.43;;
8626;SDS011;4351;51.422;6.794;2023-07-02T10:28:16;16.43;;;7.70;;
8626;SDS011;4351;51.422;6.794;2023-07-02T10:30:46;17.03;;;7.27;;
8626;SDS011;4351;51.422;6.794;2023-07-02T10:33:14;14.63;;;6.90;;
8626;SDS011;4351;51.422;6.794;2023-07-02T10:35:44;14.73;;;6.97;;
8626;SDS011;4351;51.422;6.794;2023-07-02T10:38:15;15.10;;;6.93;;
8626;SDS011;4351;51.422;6.794;2023-07-02T10:40:45;13.50;;;7.00;;
8626;SDS011;4351;51.422;6.794;2023-07-02T10:43:14;15.33;;;7.40;;
8626;SDS011;4351;51.422;6.794;2023-07-02T10:45:55;16.30;;;7.03;;
8626;SDS011;4351;51.422;6.794;2023-07-02T10:48:23;16.60;;;6.97;;
8626;SDS011;4351;51.422;6.794;2023-07-02T10:50:51;15.07;;;6.83;;
8626;SDS011;4351;51.422;6.794;2023-07-02T10:53:20;13.33;;;6.43;;
8626;SDS011;4351;51.422;6.794;2023-07-02T10:55:53;14.40;;;6.50;;
8626;SDS011;4351;51.422;6.794;2023-07-02T10:58:24;14.83;;;6.93;;
8626;SDS011;4351;51.422;6.794;2023-07-02T11:00:52;14.70;;;7.27;;
8626;SDS011;4351;51.422;6.794;2023-07-02T11:03:20;13.47;;;6.53;;
8626;SDS011;4351;51.422;6.794;2023-07-02T11:05:50;18.30;;;7.23;;
8626;SDS011;4351;51.422;6.794;2023-07-02T11:08:21;10.93;;;6.20;;
8626;SDS011;4351;51.422;6.794;2023-07-02T11:10:51;9.63;;;5.73;;
8626;SDS011;4351;51.422;6.794;2023-07-02T11:13:32;13.60;;;6.43;;
8626;SDS011;4351;51.422;6.794;2023-07-02T11:16:00;13.07;;;6.40;;
8626;SDS011;4351;51.422;6.794;2023-07-02T11:18:30;13.10;;;6.47;;
8626;SDS011;4351;51.422;6.794;2023-07-02T11:20:58;17.83;;;6.87;;
8626;SDS011;4351;51.422;6.794;2023-07-02T11:23:38;16.00;;;7.50;;
8626;SDS011;4351;51.422;6.794;2023-07-02T11:26:06;12.80;;;6.50;;
8626;SDS011;4351;51.422;6.794;2023-07-02T11:28:35;14.17;;;6.20;;
8626;SDS011;4351;51.422;6.794;2023-07-02T11:31:04;12.30;;;6.30;;
8626;SDS011;4351;51.422;6.794;2023-07-02T11:33:34;14.77;;;6.57;;
8626;SDS011;4351;51.422;6.794;2023-07-02T11:36:03;13.37;;;6.33;;
8626;SDS011;4351;51.422;6.794;2023-07-02T11:38:32;11.03;;;5.60;;
8626;SDS011;4351;51.422;6.794;2023-07-02T11:41:03;10.93;;;5.67;;
8626;SDS011;4351;51.422;6.794;2023-07-02T11:43:31;13.40;;;5.50;;
8626;SDS011;4351;51.422;6.794;2023-07-02T11:46:00;13.13;;;6.17;;
8626;SDS011;4351;51.422;6.794;2023-07-02T11:48:28;13.00;;;6.30;;
8626;SDS011;4351;51.422;6.794;2023-07-02T11:50:56;15.10;;;6.33;;
8626;SDS011;4351;51.422;6.794;2023-07-02T11:53:25;11.47;;;5.70;;
8626;SDS011;4351;51.422;6.794;2023-07-02T11:55:52;13.00;;;6.13;;
8626;SDS011;4351;51.422;6.794;2023-07-02T11:58:22;13.23;;;6.47;;
8626;SDS011;4351;51.422;6.794;2023-07-02T12:00:50;12.20;;;6.33;;
8626;SDS011;4351;51.422;6.794;2023-07-02T12:03:17;14.30;;;6.80;;
8626;SDS011;4351;51.422;6.794;2023-07-02T12:05:45;15.33;;;6.90;;
8626;SDS011;4351;51.422;6.794;2023-07-02T12:08:14;13.47;;;6.77;;
8626;SDS011;4351;51.422;6.794;2023-07-02T12:10:42;12.17;;;6.60;;
8626;SDS011;4351;51.422;6.794;2023-07-02T12:13:10;12.40;;;6.43;;
8626;SDS011;4351;51.422;6.794;2023-07-02T12:15:39;13.37;;;6.47;;
8626;SDS011;4351;51.422;6.794;2023-07-02T12:18:08;13.23;;;6.60;;
8626;SDS011;4351;51.422;6.794;2023-07-02T12:20:36;13.37;;;6.60;;
8626;SDS011;4351;51.422;6.794;2023-07-02T12:23:04;11.93;;;6.53;;
8626;SDS011;4351;51.422;6.794;2023-07-02T12:25:32;16.10;;;6.33;;
8626;SDS011;4351;51.422;6.794;2023-07-02T12:28:01;11.67;;;6.27;;
8626;SDS011;4351;51.422;6.794;2023-07-02T12:30:31;13.43;;;6.57;;
8626;SDS011;4351;51.422;6.794;2023-07-02T12:33:00;13.57;;;6.07;;
8626;SDS011;4351;51.422;6.794;2023-07-02T12:35:28;14.03;;;7.20;;
8626;SDS011;4351;51.422;6.794;2023-07-02T12:37:56;12.30;;;6.20;;
8626;SDS011;4351;51.422;6.794;2023-07-02T12:40:24;12.40;;;6.60;;
8626;SDS011;4351;51.422;6.794;2023-07-02T12:42:52;12.97;;;6.53;;
8626;SDS011;4351;51.422;6.794;2023-07-02T12:45:20;16.23;;;7.07;;
8626;SDS011;4351;51.422;6.794;2023-07-02T12:47:47;13.00;;;6.50;;
8626;SDS011;4351;51.422;6.794;2023-07-02T12:50:17;15.33;;;7.00;;
8626;SDS011;4351;51.422;6.794;2023-07-02T12:52:46;13.87;;;6.83;;
8626;SDS011;4351;51.422;6.794;2023-07-02T12:55:14;14.43;;;6.77;;
8626;SDS011;4351;51.422;6.794;2023-07-02T12:57:41;15.17;;;7.17;;
8626;SDS011;4351;51.422;6.794;2023-07-02T13:00:10;16.40;;;7.17;;
8626;SDS011;4351;51.422;6.794;2023-07-02T13:02:38;18.93;;;7.80;;
8626;SDS011;4351;51.422;6.794;2023-07-02T13:05:27;15.23;;;7.53;;
8626;SDS011;4351;51.422;6.794;2023-07-02T13:07:56;15.03;;;7.43;;
8626;SDS011;4351;51.422;6.794;2023-07-02T13:10:23;17.40;;;7.57;;
8626;SDS011;4351;51.422;6.794;2023-07-02T13:12:51;15.50;;;7.73;;
8626;SDS011;4351;51.422;6.794;2023-07-02T13:15:19;16.43;;;8.00;;
8626;SDS011;4351;51.422;6.794;2023-07-02T13:17:49;17.33;;;8.03;;
8626;SDS011;4351;51.422;6.794;2023-07-02T13:20:17;16.80;;;7.73;;
8626;SDS011;4351;51.422;6.794;2023-07-02T13:22:47;14.43;;;8.00;;
8626;SDS011;4351;51.422;6.794;2023-07-02T13:25:14;20.13;;;8.13;;
8626;SDS011;4351;51.422;6.794;2023-07-02T13:27:42;15.07;;;8.20;;
8626;SDS011;4351;51.422;6.794;2023-07-02T13:30:10;16.23;;;8.23;;
8626;SDS011;4351;51.422;6.794;2023-07-02T13:32:38;16.83;;;7.80;;
8626;SDS011;4351;51.422;6.794;2023-07-02T13:35:07;16.93;;;8.50;;
8626;SDS011;4351;51.422;6.794;2023-07-02T13:37:34;16.47;;;8.00;;
8626;SDS011;4351;51.422;6.794;2023-07-02T13:40:05;15.80;;;8.80;;
8626;SDS011;4351;51.422;6.794;2023-07-02T13:42:35;18.27;;;8.80;;
8626;SDS011;4351;51.422;6.794;2023-07-02T13:45:03;21.60;;;8.20;;
8626;SDS011;4351;51.422;6.794;2023-07-02T13:47:32;14.37;;;7.27;;
8626;SDS011;4351;51.422;6.794;2023-07-02T13:50:00;17.20;;;8.10;;
8626;SDS011;4351;51.422;6.794;2023-07-02T13:52:28;15.50;;;8.23;;
8626;SDS011;4351;51.422;6.794;2023-07-02T13:54:57;18.47;;;8.70;;
8626;SDS011;4351;51.422;6.794;2023-07-02T13:57:26;15.00;;;8.57;;
8626;SDS011;4351;51.422;6.794;2023-07-02T13:59:56;20.07;;;9.07;;
8626;SDS011;4351;51.422;6.794;2023-07-02T14:02:24;18.67;;;8.43;;
8626;SDS011;4351;51.422;6.794;2023-07-02T14:04:52;17.23;;;8.17;;
8626;SDS011;4351;51.422;6.794;2023-07-02T14:07:21;14.90;;;7.70;;
8626;SDS011;4351;51.422;6.794;2023-07-02T14:09:49;13.70;;;8.50;;
8626;SDS011;4351;51.422;6.794;2023-07-02T14:12:17;19.60;;;8.20;;
8626;SDS011;4351;51.422;6.794;2023-07-02T14:14:45;17.70;;;8.37;;
8626;SDS011;4351;51.422;6.794;2023-07-02T14:17:15;14.37;;;7.90;;
8626;SDS011;4351;51.422;6.794;2023-07-02T14:19:43;14.17;;;7.90;;
8626;SDS011;4351;51.422;6.794;2023-07-02T14:22:11;15.80;;;8.07;;
8626;SDS011;4351;51.422;6.794;2023-07-02T14:24:39;17.63;;;8.87;;
8626;SDS011;4351;51.422;6.794;2023-07-02T14:27:07;18.40;;;7.97;;
8626;SDS011;4351;51.422;6.794;2023-07-02T14:29:35;15.40;;;7.97;;
8626;SDS011;4351;51.422;6.794;2023-07-02T14:32:03;16.20;;;8.33;;
8626;SDS011;4351;51.422;6.794;2023-07-02T14:34:34;18.73;;;8.40;;
8626;SDS011;4351;51.422;6.794;2023-07-02T14:37:02;16.43;;;7.73;;
8626;SDS011;4351;51.422;6.794;2023-07-02T14:39:30;15.53;;;8.60;;
8626;SDS011;4351;51.422;6.794;2023-07-02T14:41:59;18.30;;;9.13;;
8626;SDS011;4351;51.422;6.794;2023-07-02T14:44:27;18.80;;;9.10;;
8626;SDS011;4351;51.422;6.794;2023-07-02T14:46:55;19.20;;;8.70;;
8626;SDS011;4351;51.422;6.794;2023-07-02T14:49:23;18.63;;;8.70;;
8626;SDS011;4351;51.422;6.794;2023-07-02T14:51:53;18.53;;;9.27;;
8626;SDS011;4351;51.422;6.794;2023-07-02T14:54:21;16.63;;;8.40;;
8626;SDS011;4351;51.422;6.794;2023-07-02T14:56:49;19.63;;;8.97;;
8626;SDS011;4351;51.422;6.794;2023-07-02T14:59:17;15.63;;;7.93;;
8626;SDS011;4351;51.422;6.794;2023-07-02T15:01:46;17.43;;;9.17;;
8626;SDS011;4351;51.422;6.794;2023-07-02T15:04:14;16.80;;;8.43;;
8626;SDS011;4351;51.422;6.794;2023-07-02T15:06:46;14.60;;;8.93;;